OIFK  Kashan  Airport

Iran

Add Bookmark
ICAO OIFK
Type Airport
Status Operational
Latitude
33° 53' 43" N
33.895302
Longitude
51° 34' 37" E
51.577000
Local (DST + 5) UTC (GMT + 4)
Jul 29, 2015 07:05 Jul 29, 2015 02:35
Sunrise-Sunset Local UTC
Begin Civil Twilight 05:44 01:14
Sunrise 06:11 01:41
Sunset 08:08 15:38
End Civil Twilight 08:36 16:06
VFR
VFR
MVFR
MVFR
IFR
IFR
LIFR
LIFR
Unknown
Unavailable

Current Weather

METAR Observed VFR
OIFK 282200Z 00000KT CAVOK 31/05 Q1008 Tue, Jul 28, 2015 @ 22:00 UTC
(4 Hours, 35 Minutes ago)
Visual Flight Rules
Wind Visibility Conditions
Calm 10 km or more
  • No significant weather
Temperatures Readings Precipitation
Current Temp
31°C
88°F
Dewpoint
5°C
41°F
Humidity 19%
Altimeter 29.76" Hg
Sea Level Pressure 1,008 mb
Field Elevation
982 m
3,222 ft
None Recorded
-
-

CheckWX.com is intended as a tool to help pilots better visualize weather data. It is not intended as a substitute for an official weather briefing obtained from a Flight Service Station. CheckWX.com does not meet the FAA requirements for an official pre-flight weather briefing. Therefore, it's important that pilots still call and obtain an official FSS pre-flight weather briefing.

© 2007-2015 CheckWX.com
02:35:57 UTC